Time;durP1;ratioP1;P1;durP2;ratioP2;P2;SDS_P1;SDS_P2;PMS_P1;PMS_P2;Temp;Humidity;BMP_temperature;BMP_pressure;BME280_temperature;BME280_humidity;BME280_pressure;Samples;Min_cycle;Max_cycle;Signal;HPM_P1;HPM_P2
2022/07/28 00:01:36;;;;;;;3.87;0.93;;;;;;;10.25;65.70;100889.39;1759869;80;21039;-78
2022/07/28 00:04:03;;;;;;;4.27;1.43;;;;;;;10.24;65.77;100890.27;1771946;80;20995;-78
2022/07/28 00:06:29;;;;;;;2.40;1.07;;;;;;;10.21;65.97;100894.28;1772245;80;21034;-78
2022/07/28 00:08:57;;;;;;;2.87;1.00;;;;;;;10.19;65.98;100891.30;1756375;80;21003;-78
2022/07/28 00:11:24;;;;;;;2.60;0.93;;;;;;;10.17;66.12;100891.78;1776066;80;21082;-78
2022/07/28 00:13:50;;;;;;;4.33;1.37;;;;;;;10.10;66.15;100891.10;1771870;80;21017;-78
2022/07/28 00:16:18;;;;;;;4.57;1.10;;;;;;;10.05;66.15;100895.59;1761626;80;21587;-78
2022/07/28 00:18:45;;;;;;;3.70;1.13;;;;;;;10.02;66.33;100895.23;1771610;80;21031;-78
2022/07/28 00:21:12;;;;;;;2.73;0.97;;;;;;;10.00;66.41;100894.86;1772370;80;21101;-78
2022/07/28 00:23:40;;;;;;;4.03;1.20;;;;;;;9.95;66.59;100896.31;1771961;80;21935;-78
2022/07/28 00:26:08;;;;;;;2.53;1.07;;;;;;;9.93;66.69;100894.63;1782358;80;21014;-78
2022/07/28 00:28:36;;;;;;;3.73;1.10;;;;;;;9.90;66.87;100894.26;1782033;80;21225;-78
2022/07/28 00:31:04;;;;;;;3.20;0.90;;;;;;;9.88;67.04;100893.89;1779935;80;20997;-78
2022/07/28 00:33:31;;;;;;;3.17;1.13;;;;;;;9.87;67.20;100900.03;1756568;80;21054;-78
2022/07/28 00:35:58;;;;;;;2.10;1.03;;;;;;;9.85;67.25;100894.83;1767338;80;21110;-78
2022/07/28 00:38:25;;;;;;;2.43;0.97;;;;;;;9.88;67.42;100896.05;1756177;80;21534;-78
2022/07/28 00:41:11;;;;;;;2.60;1.00;;;;;;;9.92;67.67;100891.16;1767734;80;21563;-78
2022/07/28 00:43:45;;;;;;;2.87;1.13;;;;;;;9.95;67.72;100890.19;1764769;80;21086;-78
2022/07/28 00:46:16;;;;;;;4.67;1.07;;;;;;;9.93;67.61;100888.08;1782865;80;21471;-78
2022/07/28 00:48:46;;;;;;;2.60;1.10;;;;;;;9.90;67.66;100885.09;1780249;80;21111;-78
2022/07/28 00:51:15;;;;;;;2.70;1.10;;;;;;;9.89;67.81;100887.28;1774520;80;21465;-78
2022/07/28 00:53:44;;;;;;;3.30;1.20;;;;;;;9.88;67.86;100884.27;1764500;80;21052;-78
2022/07/28 00:56:12;;;;;;;3.87;0.97;;;;;;;9.88;67.76;100886.89;1756531;80;21051;-77
2022/07/28 00:58:41;;;;;;;1.90;1.00;;;;;;;9.81;67.51;100891.89;1768896;80;21070;-78
2022/07/28 01:01:10;;;;;;;1.90;0.90;;;;;;;9.72;67.47;100891.66;1765016;80;21572;-78
2022/07/28 01:03:42;;;;;;;2.83;1.05;;;;;;;9.66;67.54;100887.89;1767225;80;21065;-78
2022/07/28 01:06:32;;;;;;;3.63;1.10;;;;;;;9.61;67.57;100894.99;1776883;80;21038;-78
2022/07/28 01:09:37;;;;;;;1.57;0.78;;;;;;;9.55;67.61;100895.16;1767764;80;21002;-78
2022/07/28 01:12:34;;;;;;;3.00;0.93;;;;;;;9.52;67.89;100892.61;1777202;80;21264;-78
2022/07/28 01:15:21;;;;;;;3.20;0.80;;;;;;;9.48;68.13;100894.45;1767314;80;21134;-77
2022/07/28 01:18:05;;;;;;;2.77;1.20;;;;;;;9.49;68.27;100894.00;1765696;80;21059;-77
2022/07/28 01:20:40;;;;;;;3.73;1.07;;;;;;;9.45;68.21;100889.30;1757360;80;21023;-78
2022/07/28 01:23:34;;;;;;;1.60;0.93;;;;;;;9.41;68.58;100888.95;1771867;80;21018;-77
2022/07/28 01:26:58;;;;;;;5.47;1.47;;;;;;;9.41;68.62;100890.26;1778008;80;20997;-78
2022/07/28 01:29:52;;;;;;;3.33;1.30;;;;;;;9.38;68.85;100887.27;1772133;80;21877;-78
2022/07/28 01:32:24;;;;;;;2.73;1.33;;;;;;;9.34;68.61;100892.17;1769286;80;21577;-79
2022/07/28 01:35:11;;;;;;;6.13;1.50;;;;;;;9.27;68.74;100894.97;1773915;80;21011;-78
2022/07/28 01:37:46;;;;;;;1.90;1.10;;;;;;;9.25;68.89;100894.13;1784761;80;21058;-78
2022/07/28 01:40:18;;;;;;;2.10;1.00;;;;;;;9.19;68.85;100894.28;1775111;80;20995;-78
2022/07/28 01:42:50;;;;;;;4.03;1.10;;;;;;;9.17;68.93;100899.53;1783067;80;21122;-78
2022/07/28 01:45:19;;;;;;;3.10;1.30;;;;;;;9.11;68.87;100896.62;1772417;80;21528;-78
2022/07/28 01:47:48;;;;;;;4.97;1.30;;;;;;;9.08;69.09;100895.84;1782844;80;21085;-77
2022/07/28 01:50:19;;;;;;;4.70;1.30;;;;;;;9.07;69.05;100898.91;1778701;80;21611;-78
2022/07/28 01:52:48;;;;;;;4.67;1.30;;;;;;;9.04;69.18;100896.36;1787456;80;21062;-78
2022/07/28 01:55:20;;;;;;;4.50;1.20;;;;;;;9.01;69.29;100893.83;1766777;80;21344;-78
2022/07/28 01:57:48;;;;;;;3.10;1.20;;;;;;;9.02;69.54;100898.60;1767211;80;21031;-78
2022/07/28 02:00:16;;;;;;;4.17;1.30;;;;;;;9.02;69.66;100908.60;1757127;80;21524;-78
2022/07/28 02:02:47;;;;;;;2.20;1.00;;;;;;;9.00;69.79;100893.39;1772128;80;21031;-77
2022/07/28 02:05:18;;;;;;;3.57;1.13;;;;;;;8.97;69.64;100905.68;1772309;80;21082;-77
2022/07/28 02:07:47;;;;;;;3.37;1.30;;;;;;;8.94;69.71;100901.37;1780735;80;21123;-77
2022/07/28 02:10:16;;;;;;;3.37;1.40;;;;;;;8.90;69.71;100894.06;1773921;80;21536;-78
2022/07/28 02:12:47;;;;;;;3.50;1.30;;;;;;;8.90;70.00;100898.44;1772233;80;21058;-78
2022/07/28 02:15:15;;;;;;;3.15;1.10;;;;;;;8.92;70.16;100891.39;1783275;80;21640;-78
2022/07/28 02:17:46;;;;;;;4.70;1.63;;;;;;;8.92;70.21;100891.39;1764873;80;21123;-78
2022/07/28 02:20:15;;;;;;;2.07;1.20;;;;;;;8.90;70.24;100898.44;1760807;80;21102;-78
2022/07/28 02:22:42;;;;;;;5.43;1.70;;;;;;;8.88;70.30;100897.59;1769953;78;21204;-78
2022/07/28 02:25:11;;;;;;;3.30;1.27;;;;;;;8.86;70.58;100892.84;1782929;79;21057;-78
2022/07/28 02:27:56;;;;;;;3.03;1.40;;;;;;;8.88;70.71;100894.98;1767939;80;21050;-78
2022/07/28 02:30:28;;;;;;;1.47;1.00;;;;;;;8.85;70.62;100893.75;1767737;80;20997;-78
2022/07/28 02:33:00;;;;;;;2.53;1.10;;;;;;;8.84;70.57;100899.43;1779589;80;21129;-78
2022/07/28 02:35:44;;;;;;;2.27;1.10;;;;;;;8.80;70.54;100898.22;1778881;80;20971;-78
2022/07/28 02:38:22;;;;;;;2.73;1.40;;;;;;;8.76;70.72;100900.04;1764128;80;20990;-78
2022/07/28 02:40:56;;;;;;;2.50;1.03;;;;;;;8.74;70.72;100898.35;1779583;80;21505;-78
2022/07/28 02:43:27;;;;;;;2.13;1.30;;;;;;;8.68;70.48;100903.27;1786690;80;21088;-77
2022/07/28 02:46:02;;;;;;;5.73;1.30;;;;;;;8.61;70.61;100903.81;1780050;80;21134;-78
2022/07/28 02:48:32;;;;;;;3.33;1.10;;;;;;;8.58;70.78;100905.64;1780029;80;20979;-78
2022/07/28 02:51:01;;;;;;;2.60;1.22;;;;;;;8.56;70.89;100906.11;1780098;80;21458;-78
2022/07/28 02:53:30;;;;;;;4.07;1.37;;;;;;;8.55;71.03;100907.87;1780081;80;21536;-78
2022/07/28 02:55:58;;;;;;;3.13;1.40;;;;;;;8.55;71.17;100911.80;1779336;80;20987;-78
2022/07/28 02:58:27;;;;;;;5.70;1.40;;;;;;;8.55;71.10;100917.02;1763428;80;21071;-78
2022/07/28 03:00:56;;;;;;;2.70;1.40;;;;;;;8.55;71.21;100914.86;1763379;80;21060;-78
2022/07/28 03:03:23;;;;;;;2.53;1.30;;;;;;;8.54;71.29;100919.23;1792996;80;21058;-78
2022/07/28 03:05:51;;;;;;;2.70;1.20;;;;;;;8.53;71.53;100920.55;1784722;80;21034;-77
2022/07/28 03:08:19;;;;;;;2.07;1.20;;;;;;;8.56;71.63;100928.32;1765271;80;21362;-78
2022/07/28 03:10:46;;;;;;;3.13;1.40;;;;;;;8.56;71.71;100932.24;1772865;80;21131;-78
2022/07/28 03:13:13;;;;;;;3.47;1.30;;;;;;;8.58;71.84;100931.77;1769069;80;21042;-78
2022/07/28 03:15:41;;;;;;;4.03;1.43;;;;;;;8.57;71.92;100928.30;1780101;80;21479;-78
2022/07/28 03:18:08;;;;;;;2.53;1.37;;;;;;;8.58;71.78;100934.39;1778682;80;21023;-78
2022/07/28 03:20:36;;;;;;;3.60;1.30;;;;;;;8.55;71.79;100934.45;1768762;80;20995;-78
2022/07/28 03:23:03;;;;;;;2.43;1.43;;;;;;;8.54;72.10;100941.44;1788927;78;21115;-78
2022/07/28 03:25:44;;;;;;;2.33;1.50;;;;;;;8.55;72.11;100944.45;1783426;78;21046;-78
2022/07/28 03:28:16;;;;;;;3.37;1.63;;;;;;;8.55;72.20;100949.67;1782612;79;20987;-78
2022/07/28 03:30:49;;;;;;;3.27;1.37;;;;;;;8.54;72.24;100949.73;1790764;79;21437;-78
2022/07/28 03:33:16;;;;;;;3.00;1.80;;;;;;;8.53;72.42;100950.59;1782193;80;21675;-78
2022/07/28 03:35:47;;;;;;;4.30;1.60;;;;;;;8.53;72.56;100957.98;1782500;80;21089;-78
2022/07/28 03:38:25;;;;;;;3.33;1.40;;;;;;;8.54;72.67;100964.95;1782364;79;21010;-78
2022/07/28 03:40:55;;;;;;;4.00;1.60;;;;;;;8.55;72.91;100986.26;1770902;79;21046;-78
2022/07/28 03:43:25;;;;;;;3.50;1.70;;;;;;;8.64;73.65;100985.21;1789427;79;21584;-78
2022/07/28 03:45:52;;;;;;;4.28;1.80;;;;;;;8.77;74.18;100990.62;1784741;79;21641;-81
2022/07/28 03:48:23;;;;;;;2.63;1.73;;;;;;;8.88;74.20;100996.94;1801945;79;21461;-84
2022/07/28 03:50:50;;;;;;;5.50;1.90;;;;;;;8.94;74.30;100985.89;1795477;79;21709;-82
2022/07/28 03:53:24;;;;;;;4.80;1.70;;;;;;;9.04;74.19;100990.95;1778995;78;21092;-83
2022/07/28 03:55:52;;;;;;;4.20;1.50;;;;;;;9.05;73.84;100996.13;1795249;79;21030;-83
2022/07/28 03:58:22;;;;;;;3.07;1.53;;;;;;;9.09;74.12;100991.27;1788525;79;21058;-84
2022/07/28 04:00:49;;;;;;;4.75;1.90;;;;;;;9.15;73.74;100983.28;1795552;79;21944;-84
2022/07/28 04:03:18;;;;;;;2.30;1.47;;;;;;;9.17;73.57;100983.23;1777439;78;21073;-80
2022/07/28 04:05:45;;;;;;;5.67;1.60;;;;;;;9.19;73.58;100980.14;1785026;78;20994;-80
2022/07/28 04:08:12;;;;;;;3.57;1.97;;;;;;;9.25;73.93;100982.62;1780567;79;21010;-83
2022/07/28 04:10:40;;;;;;;3.90;1.80;;;;;;;9.40;74.25;100989.73;1776905;79;21066;-81
2022/07/28 04:13:07;;;;;;;3.07;1.43;;;;;;;9.51;74.15;100976.81;1790728;79;21875;-80
2022/07/28 04:15:34;;;;;;;3.87;1.60;;;;;;;9.59;73.90;100974.88;1794632;78;21484;-84
2022/07/28 04:18:02;;;;;;;4.37;1.60;;;;;;;9.63;73.70;100973.48;1769092;81;21086;-80
2022/07/28 04:20:30;;;;;;;2.97;1.60;;;;;;;9.66;73.78;100971.65;1770521;81;21047;-84
2022/07/28 04:22:57;;;;;;;4.77;2.00;;;;;;;9.72;73.69;100975.87;1790253;79;20995;-83
2022/07/28 04:25:26;;;;;;;5.13;1.60;;;;;;;9.75;73.68;100975.34;1788854;79;21111;-80
2022/07/28 04:27:55;;;;;;;2.62;1.67;;;;;;;9.79;73.66;100978.77;1786824;80;21035;-84
2022/07/28 04:30:24;;;;;;;5.03;1.90;;;;;;;9.88;73.86;100981.60;1790394;80;21488;-80
2022/07/28 04:32:53;;;;;;;5.20;1.57;;;;;;;9.95;73.79;100980.11;1789949;80;21466;-81
2022/07/28 04:35:26;;;;;;;3.63;1.93;;;;;;;10.00;74.10;100979.55;1786758;80;21062;-80
2022/07/28 04:37:57;;;;;;;7.80;1.80;;;;;;;10.05;73.96;100979.41;1779101;80;21087;-84
2022/07/28 04:40:21;;;;;;;3.13;1.77;;;;;;;10.08;74.04;100976.70;1778799;79;20948;-80
2022/07/28 04:42:49;;;;;;;7.07;1.63;;;;;;;10.15;74.03;100983.52;1789715;80;21000;-80
2022/07/28 04:45:16;;;;;;;3.63;1.77;;;;;;;10.23;74.01;100984.64;1789820;80;21510;-80
2022/07/28 04:47:43;;;;;;;3.63;1.73;;;;;;;10.30;73.94;100983.59;1768056;80;21056;-80
2022/07/28 04:50:14;;;;;;;2.60;1.67;;;;;;;10.37;73.92;100977.75;1789983;80;21977;-80
2022/07/28 04:52:41;;;;;;;;;;;;;;;10.43;73.85;100978.44;1788721;79;21020;-80
2022/07/28 04:55:09;;;;;;;3.87;1.50;;;;;;;10.53;74.08;100983.42;1784013;80;20534;-83
2022/07/28 04:57:36;;;;;;;6.30;1.87;;;;;;;10.66;74.24;100984.80;1787686;80;21045;-82
2022/07/28 05:00:11;;;;;;;3.90;1.57;;;;;;;10.76;74.09;100981.03;1789886;80;21000;-80
2022/07/28 05:02:35;;;;;;;3.87;2.47;;;;;;;10.87;74.32;100981.58;1779043;79;21130;-80
2022/07/28 05:05:02;;;;;;;3.30;2.00;;;;;;;11.04;74.59;100974.98;1790561;80;21063;-82
2022/07/28 05:07:29;;;;;;;3.43;2.00;;;;;;;11.19;74.84;100974.96;1782041;80;21069;-81
2022/07/28 05:09:56;;;;;;;4.07;1.90;;;;;;;11.34;74.75;100974.05;1770562;79;21054;-83
2022/07/28 05:12:23;;;;;;;7.73;2.50;;;;;;;11.44;74.38;100977.69;1775818;79;21602;-84
2022/07/28 05:14:50;;;;;;;2.43;1.87;;;;;;;11.53;74.41;100970.86;1764061;79;21103;-80
2022/07/28 05:17:17;;;;;;;3.13;2.00;;;;;;;11.67;74.71;100967.78;1767243;81;21007;-79
2022/07/28 05:19:45;;;;;;;4.35;1.75;;;;;;;11.79;74.58;100967.38;1756428;81;21077;-80
2022/07/28 05:22:12;;;;;;;3.70;1.95;;;;;;;11.90;74.59;100969.22;1770444;79;21097;-82
2022/07/28 05:24:39;;;;;;;6.90;4.40;;;;;;;11.99;74.28;100965.42;1759399;79;21064;-84
2022/07/28 05:27:06;;;;;;;4.65;3.20;;;;;;;12.10;74.17;100970.31;1745309;81;21083;-78
2022/07/28 05:29:37;;;;;;;3.57;2.03;;;;;;;12.19;74.11;100973.50;1744726;81;21035;-81
2022/07/28 05:32:02;;;;;;;4.35;1.85;;;;;;;12.26;74.00;100973.67;1744879;81;21031;-80
2022/07/28 05:34:28;;;;;;;3.27;1.60;;;;;;;12.41;73.87;100971.41;1747690;82;21035;-80
2022/07/28 05:36:55;;;;;;;4.78;1.75;;;;;;;12.50;73.71;100973.27;1748133;80;21043;-80
2022/07/28 05:39:23;;;;;;;3.77;1.32;;;;;;;12.62;73.74;100979.00;1779585;80;21133;-81
2022/07/28 05:41:50;;;;;;;2.10;1.40;;;;;;;12.71;73.45;100978.66;1752015;80;21023;-80
2022/07/28 05:44:17;;;;;;;4.03;1.60;;;;;;;12.79;73.29;100982.33;1754072;81;21651;-79
2022/07/28 05:46:44;;;;;;;3.35;1.45;;;;;;;12.87;73.11;100978.48;1760071;81;21051;-80
2022/07/28 05:49:11;;;;;;;6.22;1.30;;;;;;;12.98;73.06;100979.87;1751409;81;21051;-82
2022/07/28 05:51:38;;;;;;;3.20;1.42;;;;;;;13.06;73.04;100976.03;1755635;81;21118;-83
2022/07/28 05:54:05;;;;;;;3.65;1.42;;;;;;;13.18;72.98;100978.64;1752489;81;21080;-82
2022/07/28 05:56:32;;;;;;;4.53;1.80;;;;;;;13.33;73.26;100980.73;1755963;80;21519;-83
2022/07/28 05:58:59;;;;;;;3.10;1.55;;;;;;;13.49;73.09;100987.53;1754216;81;21424;-81
2022/07/28 06:01:26;;;;;;;5.00;1.47;;;;;;;13.58;72.56;100979.30;1757052;81;21475;-85
2022/07/28 06:03:53;;;;;;;4.00;1.85;;;;;;;13.66;72.30;100985.54;1747917;81;21071;-84
2022/07/28 06:06:20;;;;;;;3.20;2.00;;;;;;;13.73;72.01;100986.17;1756522;81;21008;-83
2022/07/28 06:08:48;;;;;;;6.30;2.15;;;;;;;13.80;71.92;100989.81;1760435;81;21494;-84
2022/07/28 06:11:15;;;;;;;3.45;1.75;;;;;;;13.88;71.80;100990.80;1753302;81;21743;-80
2022/07/28 06:13:45;;;;;;;5.10;1.62;;;;;;;13.98;71.77;100990.81;1757902;80;21026;-84
2022/07/28 06:16:11;;;;;;;6.20;1.92;;;;;;;14.09;71.64;100996.96;1757960;81;21470;-80
2022/07/28 06:18:38;;;;;;;4.85;1.80;;;;;;;14.23;71.69;100994.59;1751681;81;21044;-84
2022/07/28 06:21:05;;;;;;;3.72;1.95;;;;;;;14.39;71.51;100992.16;1759325;81;21091;-85
2022/07/28 06:23:35;;;;;;;7.97;2.27;;;;;;;14.51;71.19;100994.25;1759709;81;21086;-90
2022/07/28 06:26:01;;;;;;;7.22;1.47;;;;;;;14.61;70.84;100990.79;1763080;78;21053;-87
2022/07/28 06:28:28;;;;;;;3.27;1.77;;;;;;;14.73;70.57;100999.94;1785395;78;21105;-88
2022/07/28 06:30:55;;;;;;;5.20;1.62;;;;;;;14.84;70.30;101007.38;1783662;79;21445;-84
2022/07/28 06:33:22;;;;;;;4.55;1.95;;;;;;;14.94;69.78;101001.61;1762149;81;21046;-88
2022/07/28 06:35:49;;;;;;;3.45;1.42;;;;;;;15.07;69.49;101004.99;1760191;81;21070;-84
2022/07/28 06:38:16;;;;;;;3.40;1.40;;;;;;;15.18;69.28;101001.39;1756096;81;21556;-85
2022/07/28 06:40:44;;;;;;;4.42;1.40;;;;;;;15.28;68.90;101004.00;1766810;79;21100;-85
2022/07/28 06:43:13;;;;;;;5.17;1.50;;;;;;;15.40;68.59;101005.20;1777767;79;21077;-84
2022/07/28 06:45:40;;;;;;;4.45;1.52;;;;;;;15.50;68.24;101003.84;1734105;81;22125;-85
2022/07/28 06:48:07;;;;;;;7.80;1.65;;;;;;;15.65;67.98;101001.39;1752217;81;21064;-88
2022/07/28 06:50:37;;;;;;;6.22;1.45;;;;;;;15.78;67.74;100998.10;1743361;80;21066;-87
2022/07/28 06:53:04;;;;;;;6.53;1.60;;;;;;;15.94;67.35;100999.53;1723352;81;21134;-87
2022/07/28 06:55:32;;;;;;;4.00;1.40;;;;;;;16.15;66.99;100998.05;1760830;80;21606;-78
2022/07/28 06:58:00;;;;;;;5.75;1.60;;;;;;;16.31;66.51;100993.69;1760779;79;21057;-88
2022/07/28 07:00:27;;;;;;;3.45;1.22;;;;;;;16.54;65.62;100994.28;1741301;81;21081;-86
2022/07/28 07:02:54;;;;;;;2.98;1.32;;;;;;;16.54;65.62;100994.28;1761992;79;21704;-87
2022/07/28 07:05:21;;;;;;;4.50;1.40;;;;;;;16.70;65.23;101001.81;1785721;79;21127;-86
2022/07/28 07:07:48;;;;;;;3.47;0.93;;;;;;;16.82;64.58;100999.87;1760949;81;21028;-89
2022/07/28 07:10:16;;;;;;;3.10;0.90;;;;;;;17.00;64.21;100996.70;1759657;81;21099;-85
2022/07/28 07:12:42;;;;;;;3.77;1.00;;;;;;;17.13;63.69;100996.42;1761128;81;21054;-82
2022/07/28 07:15:11;;;;;;;2.50;0.68;;;;;;;17.21;63.10;100988.50;1761105;79;21118;-84
2022/07/28 07:17:38;;;;;;;3.62;0.93;;;;;;;17.35;62.42;100993.91;1773517;80;21129;-84
2022/07/28 07:20:07;;;;;;;2.83;0.98;;;;;;;17.50;61.79;100990.38;1771509;80;21072;-86
2022/07/28 07:22:36;;;;;;;1.30;0.50;;;;;;;17.66;61.47;100991.70;1761347;81;21065;-84
2022/07/28 07:25:15;;;;;;;3.92;0.98;;;;;;;17.77;60.79;100992.41;1783001;79;21038;-85
2022/07/28 07:27:44;;;;;;;3.75;0.70;;;;;;;17.86;60.33;100996.36;1770018;79;21098;-81
2022/07/28 07:30:13;;;;;;;2.95;0.90;;;;;;;18.02;59.76;100998.50;1753014;79;21981;-84
2022/07/28 07:32:42;;;;;;;5.00;0.93;;;;;;;18.13;59.21;101004.03;1771646;80;37604;-84
2022/07/28 07:35:09;;;;;;;2.58;0.70;;;;;;;18.23;58.47;100999.02;1754523;79;21059;-83
2022/07/28 07:37:36;;;;;;;4.10;0.88;;;;;;;18.37;58.25;100994.21;1749800;81;21079;-84
2022/07/28 07:40:06;;;;;;;5.00;0.85;;;;;;;18.52;58.04;100995.95;1755564;81;21047;-83
2022/07/28 07:42:34;;;;;;;2.05;0.90;;;;;;;18.66;57.47;100995.11;1755298;79;21116;-82
2022/07/28 07:45:01;;;;;;;4.62;0.70;;;;;;;18.77;56.93;100994.01;1765104;80;21046;-82
2022/07/28 07:47:28;;;;;;;4.40;0.90;;;;;;;18.87;56.48;101000.47;1765269;80;21030;-85
2022/07/28 07:49:55;;;;;;;3.08;0.90;;;;;;;18.94;56.00;101003.09;1773626;78;22023;-83
2022/07/28 07:52:22;;;;;;;3.50;0.70;;;;;;;19.04;55.33;100999.86;1752741;80;21323;-87
2022/07/28 07:54:49;;;;;;;4.08;0.90;;;;;;;19.16;55.27;101001.75;1751694;81;21188;-85
2022/07/28 07:57:16;;;;;;;2.47;0.80;;;;;;;19.21;54.48;101003.65;1757016;79;21063;-82
2022/07/28 07:59:46;;;;;;;3.35;0.90;;;;;;;19.23;53.98;101002.20;1750346;81;21384;-84
2022/07/28 08:02:13;;;;;;;2.22;0.68;;;;;;;19.34;53.79;101003.25;1750717;79;21111;-80
2022/07/28 08:04:40;;;;;;;2.75;0.82;;;;;;;19.43;53.49;100996.48;1749252;81;21568;-81
2022/07/28 08:07:07;;;;;;;6.58;1.42;;;;;;;19.54;53.03;100996.64;1749443;81;22013;-85
2022/07/28 08:09:34;;;;;;;2.95;0.88;;;;;;;19.65;52.72;100990.63;1757110;81;21454;-80
2022/07/28 08:12:02;;;;;;;4.70;1.12;;;;;;;19.80;52.58;100984.79;1766983;80;21039;-81
2022/07/28 08:14:29;;;;;;;3.85;1.30;;;;;;;19.91;52.00;100983.59;1753721;80;21088;-81
2022/07/28 08:16:58;;;;;;;4.92;1.10;;;;;;;20.05;51.71;100982.19;1774264;80;21330;-81
2022/07/28 08:19:25;;;;;;;4.12;0.80;;;;;;;20.19;51.25;100982.58;1755223;81;21143;-82
2022/07/28 08:21:54;;;;;;;2.35;0.80;;;;;;;20.31;51.12;100985.36;1742144;81;20947;-82
2022/07/28 08:24:21;;;;;;;2.37;0.85;;;;;;;20.40;50.49;100977.61;1767010;80;21062;-82
2022/07/28 08:26:50;;;;;;;1.95;0.80;;;;;;;20.52;50.48;100977.72;1786294;79;21066;-82
2022/07/28 08:29:17;;;;;;;2.77;0.70;;;;;;;20.66;50.40;100980.30;1772088;79;20987;-82
2022/07/28 08:31:44;;;;;;;5.10;0.90;;;;;;;20.83;50.10;100977.28;1735256;81;21931;-82
2022/07/28 08:34:11;;;;;;;3.50;1.15;;;;;;;20.99;49.54;100982.38;1778841;79;21025;-82
2022/07/28 08:36:38;;;;;;;7.15;0.95;;;;;;;21.07;48.87;100981.35;1764305;79;21592;-82
2022/07/28 08:39:05;;;;;;;1.90;0.78;;;;;;;21.12;48.84;100975.22;1738685;81;21043;-82
2022/07/28 08:41:49;;;;;;;2.02;0.70;;;;;;;21.16;48.12;100974.50;1779554;79;21093;-82
2022/07/28 08:44:22;;;;;;;3.17;0.93;;;;;;;21.16;47.99;100973.17;1747525;80;21138;-82
2022/07/28 08:46:52;;;;;;;5.12;0.85;;;;;;;21.25;47.96;100979.64;1738418;81;21014;-81
2022/07/28 08:49:19;;;;;;;3.87;0.90;;;;;;;21.42;47.82;100985.95;1776133;78;20956;-81
2022/07/28 08:51:48;;;;;;;2.65;1.00;;;;;;;21.54;47.21;100981.56;1743583;81;21032;-81
2022/07/28 08:54:20;;;;;;;6.90;1.30;;;;;;;21.63;46.94;100977.35;1761051;80;20996;-81
2022/07/28 08:56:48;;;;;;;4.40;1.37;;;;;;;21.71;46.37;100973.63;1761046;80;21912;-82
2022/07/28 08:59:16;;;;;;;3.30;0.80;;;;;;;21.69;45.60;100974.22;1760686;80;21450;-81
2022/07/28 09:01:46;;;;;;;5.00;1.10;;;;;;;21.68;45.67;100967.20;1757202;80;21092;-81
2022/07/28 09:04:17;;;;;;;3.35;1.05;;;;;;;21.83;45.78;100972.70;1752963;80;21091;-82
2022/07/28 09:06:45;;;;;;;6.00;1.05;;;;;;;21.97;45.78;100970.33;1756908;81;21496;-81
2022/07/28 09:09:12;;;;;;;4.20;1.10;;;;;;;22.06;45.33;100974.98;1760715;80;21203;-82
2022/07/28 09:11:39;;;;;;;3.58;1.00;;;;;;;22.13;44.89;100970.02;1760979;80;21564;-82
2022/07/28 09:14:06;;;;;;;2.17;0.78;;;;;;;22.11;44.31;100972.79;1760877;80;21536;-81
2022/07/28 09:16:33;;;;;;;3.67;0.90;;;;;;;22.14;44.24;100973.92;1761094;80;21068;-82
2022/07/28 09:19:01;;;;;;;5.08;0.80;;;;;;;22.16;43.89;100968.44;1743851;81;21278;-81
2022/07/28 09:21:28;;;;;;;2.40;0.70;;;;;;;22.12;43.83;100971.00;1761010;80;21172;-81
2022/07/28 09:23:55;;;;;;;4.58;1.35;;;;;;;22.14;43.68;100967.70;1760857;81;20985;-82
2022/07/28 09:26:22;;;;;;;2.47;0.80;;;;;;;22.16;43.30;100964.44;1760924;81;21067;-86
2022/07/28 09:28:56;;;;;;;2.10;0.80;;;;;;;22.19;43.00;100965.56;1759611;80;21530;-88
2022/07/28 09:31:27;;;;;;;4.15;0.90;;;;;;;22.17;42.85;100969.67;1755476;81;21572;-87
2022/07/28 09:34:03;;;;;;;3.55;0.95;;;;;;;22.21;42.94;100969.82;1733292;81;21958;-86
2022/07/28 09:36:38;;;;;;;3.30;0.70;;;;;;;22.32;43.00;100968.16;1735603;81;21007;-86
2022/07/28 09:39:05;;;;;;;4.78;0.80;;;;;;;22.33;42.79;100971.17;1732226;81;21008;-86
2022/07/28 09:41:50;;;;;;;2.50;0.90;;;;;;;22.28;42.26;100967.52;1746204;81;21039;-82
2022/07/28 09:44:19;;;;;;;5.85;0.98;;;;;;;22.22;42.18;100966.17;1750450;81;21049;-87
2022/07/28 09:46:46;;;;;;;6.57;0.97;;;;;;;22.21;41.97;100968.48;1747254;81;21222;-84
2022/07/28 09:49:13;;;;;;;5.67;0.93;;;;;;;22.22;41.98;100965.33;1758899;81;20944;-87
2022/07/28 09:51:41;;;;;;;4.85;1.10;;;;;;;22.29;41.98;100969.73;1760968;81;21596;-83
2022/07/28 09:54:16;;;;;;;3.20;0.95;;;;;;;22.37;41.64;100957.97;1741947;81;21099;-81
2022/07/28 09:56:45;;;;;;;3.90;0.90;;;;;;;22.43;41.59;100961.00;1753748;81;21025;-81
2022/07/28 09:59:13;;;;;;;2.87;0.83;;;;;;;22.65;41.96;100960.66;1743063;81;21104;-81
2022/07/28 10:01:55;;;;;;;3.08;1.20;;;;;;;22.96;41.90;100951.56;1765873;80;21192;-81
2022/07/28 10:04:33;;;;;;;3.12;0.70;;;;;;;23.27;41.54;100964.62;1756545;80;21039;-81
2022/07/28 10:07:12;;;;;;;6.00;1.27;;;;;;;23.32;40.65;100959.27;1758507;80;21058;-81
2022/07/28 10:09:37;;;;;;;2.45;0.82;;;;;;;23.42;40.65;100956.70;1756211;80;21030;-81
2022/07/28 10:12:21;;;;;;;3.35;1.02;;;;;;;23.46;40.38;100951.94;1745524;81;22308;-86
2022/07/28 10:14:50;;;;;;;7.37;1.00;;;;;;;23.46;40.34;100950.11;1744894;81;21588;-84
2022/07/28 10:17:25;;;;;;;1.80;0.90;;;;;;;23.56;40.34;100944.86;1766230;78;21025;-77
2022/07/28 10:19:53;;;;;;;3.08;0.80;;;;;;;23.70;40.33;100939.69;1779329;80;21030;-78
2022/07/28 10:22:24;;;;;;;2.02;1.15;;;;;;;23.83;39.85;100947.05;1789936;78;21649;-77
2022/07/28 10:24:52;;;;;;;3.50;0.70;;;;;;;23.87;39.50;100946.33;1792129;80;21095;-78
2022/07/28 10:27:24;;;;;;;2.62;1.15;;;;;;;23.94;39.41;100950.17;1791799;79;20931;-78
2022/07/28 10:30:01;;;;;;;3.30;0.98;;;;;;;24.00;39.26;100953.20;1746557;81;21036;-78
2022/07/28 10:32:30;;;;;;;4.40;0.90;;;;;;;24.10;39.03;100942.53;1738972;81;21598;-89
2022/07/28 10:35:04;;;;;;;2.17;0.80;;;;;;;24.33;39.08;100943.72;1760892;81;21032;-81
2022/07/28 10:37:34;;;;;;;4.90;0.95;;;;;;;24.56;38.97;100943.96;1744817;81;21104;-76
2022/07/28 10:40:07;;;;;;;3.77;0.85;;;;;;;24.82;38.77;100941.65;1761812;81;21043;-77
2022/07/28 10:42:35;;;;;;;3.98;0.85;;;;;;;25.05;38.25;100936.94;1760722;81;21056;-76
2022/07/28 10:45:10;;;;;;;3.35;0.70;;;;;;;25.21;37.84;100938.26;1759872;81;21494;-81
2022/07/28 10:47:38;;;;;;;3.95;0.80;;;;;;;25.40;37.72;100938.28;1755754;80;21444;-90
2022/07/28 10:50:07;;;;;;;3.05;0.95;;;;;;;25.62;37.50;100933.64;1753379;81;21181;-78
2022/07/28 10:52:35;;;;;;;3.58;1.00;;;;;;;25.78;37.23;100929.89;1743951;81;21024;-79
2022/07/28 10:55:24;;;;;;;1.90;0.70;;;;;;;25.85;37.01;100921.63;1754429;80;21043;-78
2022/07/28 10:58:45;;;;;;;1.50;0.90;;;;;;;25.95;36.50;100927.84;1757140;81;28294;-77
2022/07/28 11:01:34;;;;;;;5.60;1.15;;;;;;;26.05;36.37;100922.47;1758835;81;21266;-77
2022/07/28 11:04:02;;;;;;;2.27;0.93;;;;;;;26.11;36.05;100924.57;1750662;81;21806;-79
2022/07/28 11:06:44;;;;;;;4.75;0.90;;;;;;;26.23;35.85;100920.71;1747152;80;21019;-77
2022/07/28 11:09:21;;;;;;;3.70;0.93;;;;;;;26.47;35.56;100921.56;1738359;81;21020;-76
2022/07/28 11:11:51;;;;;;;2.42;0.80;;;;;;;26.48;35.00;100921.05;1744066;80;21020;-77
2022/07/28 11:14:35;;;;;;;3.55;0.80;;;;;;;26.37;34.91;100913.18;1751597;81;21040;-78
2022/07/28 11:17:11;;;;;;;2.05;0.95;;;;;;;26.20;34.70;100909.42;1754419;79;21092;-77
2022/07/28 11:19:52;;;;;;;2.30;0.90;;;;;;;26.06;34.67;100907.20;1748515;79;21073;-76
2022/07/28 11:22:26;;;;;;;1.40;0.80;;;;;;;26.13;35.42;100905.61;1739098;81;21036;-76
2022/07/28 11:25:03;;;;;;;2.52;0.85;;;;;;;26.52;34.91;100907.69;1752062;79;21070;-85
2022/07/28 11:27:51;;;;;;;1.90;0.70;;;;;;;26.83;34.67;100909.61;1756969;81;21083;-84
2022/07/28 11:30:30;;;;;;;3.37;0.98;;;;;;;27.11;34.33;100904.20;1770968;79;21116;-85
2022/07/28 11:33:04;;;;;;;2.75;0.90;;;;;;;27.29;33.88;100904.23;1754606;79;21012;-87
2022/07/28 11:35:42;;;;;;;3.40;0.90;;;;;;;27.51;33.67;100893.50;1734352;81;20963;-86
2022/07/28 11:38:14;;;;;;;2.72;0.85;;;;;;;27.70;33.49;100891.14;1733126;81;21032;-86
2022/07/28 11:40:46;;;;;;;2.02;0.90;;;;;;;27.90;33.08;100890.48;1752925;79;21098;-88
2022/07/28 11:43:27;;;;;;;3.65;0.93;;;;;;;27.82;32.61;100885.03;1757521;80;21073;-88
2022/07/28 11:46:14;;;;;;;2.47;0.70;;;;;;;27.90;32.60;100893.17;1752888;81;21562;-88